Hlavní strana
METAR-TAF:

METAR-TAF

Letiště :

Touggourt, Alžírsko

zeměpisná šířka: 33-07N, zeměpisná délka: 006-08E, výška: 85 m

Aktuální stav počasí

Zpráva byla vytvořena před 55 minutami, v 03:00 UTC
Východní vítr 10 kt
Teplota 16°C
Vlhkost vzduchu 63%
Tlak 1020 hPa
Viditelnost 10 km a více
Žádná oblačnost pod 1500 m, nevyskytují se cumulonimby.

METAR: DAUK 070300Z 08010KT CAVOK 16/09 Q1020

Čas: 04:55 (03:55 UTC)

Předpověď počasí

Zpráva byla vytvořena před 1 hodinou a 55 minutami, v 02:00 UTC
Předpověď platná od 07 v 03 UTC do 07 v 12 UTC
Severovýchodní vítr 10 kt
Viditelnost 10 km a více
Skoro jasno ve výšce 4000 ft
Pravděpodobnost 30% :
Dočasný
od 07 v 03 UTC do 07 v 06 UTC
Severovýchodní vítr 20 kt
Viditelnost: 4000 m
nízko zvířený písek

TAF: DAUK 070200Z 0703/0712 04010KT 9999 FEW040 PROB30 TEMPO 0703/0706 04020KT 4000 DRSA

Stav a předpovědi počasí z více než 4 000 letišť (zprávy METAR a TAF).

Červené a žluté tečky na mapě představují dostupné meteorologické stanice.

Když kurzor umístíte na tečku, zobrazí se název stanice.

Pak kliknutím zobrazíte stav a předpověď počasí.

Chcete-li změnit mapu, kliknutím na zelené tlačítko se znaménkem +mapu přiblížíte, kliknutím na zelené tlačítko se znaménkem – mapu oddálíte a kliknutím na zelené šipky přejdete na sousední mapy.


METAR-TAF: